sensor_id;sensor_type;location;lat;lon;timestamp;P1;durP1;ratioP1;P2;durP2;ratioP2
83099;SDS011;72972;51.784;4.660;2024-03-07T00:00:57;2.25;;;2.05;;
83099;SDS011;72972;51.784;4.660;2024-03-07T00:03:25;2.25;;;2.05;;
83099;SDS011;72972;51.784;4.660;2024-03-07T00:05:51;2.35;;;2.15;;
83099;SDS011;72972;51.784;4.660;2024-03-07T00:08:17;2.10;;;1.90;;
83099;SDS011;72972;51.784;4.660;2024-03-07T00:10:42;1.88;;;1.73;;
83099;SDS011;72972;51.784;4.660;2024-03-07T00:13:09;2.20;;;2.00;;
83099;SDS011;72972;51.784;4.660;2024-03-07T00:15:35;2.10;;;1.90;;
83099;SDS011;72972;51.784;4.660;2024-03-07T00:18:02;2.30;;;2.10;;
83099;SDS011;72972;51.784;4.660;2024-03-07T00:20:28;2.22;;;2.03;;
83099;SDS011;72972;51.784;4.660;2024-03-07T00:22:53;2.20;;;2.00;;
83099;SDS011;72972;51.784;4.660;2024-03-07T00:25:19;2.47;;;2.28;;
83099;SDS011;72972;51.784;4.660;2024-03-07T00:27:45;1.95;;;1.77;;
83099;SDS011;72972;51.784;4.660;2024-03-07T00:30:12;2.10;;;1.90;;
83099;SDS011;72972;51.784;4.660;2024-03-07T00:32:44;2.28;;;2.08;;
83099;SDS011;72972;51.784;4.660;2024-03-07T00:35:10;2.30;;;2.10;;
83099;SDS011;72972;51.784;4.660;2024-03-07T00:37:35;2.42;;;2.22;;
83099;SDS011;72972;51.784;4.660;2024-03-07T00:40:02;2.47;;;2.28;;
83099;SDS011;72972;51.784;4.660;2024-03-07T00:42:28;2.45;;;2.25;;
83099;SDS011;72972;51.784;4.660;2024-03-07T00:44:54;2.30;;;2.10;;
83099;SDS011;72972;51.784;4.660;2024-03-07T00:47:20;2.17;;;1.98;;
83099;SDS011;72972;51.784;4.660;2024-03-07T00:49:46;2.03;;;1.83;;
83099;SDS011;72972;51.784;4.660;2024-03-07T00:52:15;1.83;;;1.70;;
83099;SDS011;72972;51.784;4.660;2024-03-07T00:54:40;2.20;;;2.00;;
83099;SDS011;72972;51.784;4.660;2024-03-07T00:57:06;2.20;;;2.00;;
83099;SDS011;72972;51.784;4.660;2024-03-07T00:59:33;2.30;;;2.10;;
83099;SDS011;72972;51.784;4.660;2024-03-07T01:01:59;2.08;;;1.92;;
83099;SDS011;72972;51.784;4.660;2024-03-07T01:04:24;2.10;;;1.90;;
83099;SDS011;72972;51.784;4.660;2024-03-07T01:06:56;2.47;;;2.28;;
83099;SDS011;72972;51.784;4.660;2024-03-07T01:09:23;2.03;;;1.92;;
83099;SDS011;72972;51.784;4.660;2024-03-07T01:11:49;2.10;;;1.90;;
83099;SDS011;72972;51.784;4.660;2024-03-07T01:14:15;2.40;;;2.20;;
83099;SDS011;72972;51.784;4.660;2024-03-07T01:16:41;2.40;;;2.20;;
83099;SDS011;72972;51.784;4.660;2024-03-07T01:19:07;2.38;;;2.17;;
83099;SDS011;72972;51.784;4.660;2024-03-07T01:21:33;2.10;;;1.90;;
83099;SDS011;72972;51.784;4.660;2024-03-07T01:24:00;2.35;;;2.15;;
83099;SDS011;72972;51.784;4.660;2024-03-07T01:26:27;2.17;;;1.98;;
83099;SDS011;72972;51.784;4.660;2024-03-07T01:28:54;2.50;;;2.30;;
83099;SDS011;72972;51.784;4.660;2024-03-07T01:31:21;2.40;;;2.20;;
83099;SDS011;72972;51.784;4.660;2024-03-07T01:33:47;2.20;;;2.00;;
83099;SDS011;72972;51.784;4.660;2024-03-07T01:36:13;2.50;;;2.30;;
83099;SDS011;72972;51.784;4.660;2024-03-07T01:38:38;2.38;;;2.17;;
83099;SDS011;72972;51.784;4.660;2024-03-07T01:41:04;2.22;;;2.03;;
83099;SDS011;72972;51.784;4.660;2024-03-07T01:43:30;2.35;;;2.15;;
83099;SDS011;72972;51.784;4.660;2024-03-07T01:45:56;2.30;;;2.10;;
83099;SDS011;72972;51.784;4.660;2024-03-07T01:48:26;2.00;;;1.80;;
83099;SDS011;72972;51.784;4.660;2024-03-07T01:50:59;2.13;;;1.92;;
83099;SDS011;72972;51.784;4.660;2024-03-07T01:53:29;2.30;;;2.10;;
83099;SDS011;72972;51.784;4.660;2024-03-07T01:55:56;2.28;;;2.08;;
83099;SDS011;72972;51.784;4.660;2024-03-07T01:58:23;2.20;;;2.00;;
83099;SDS011;72972;51.784;4.660;2024-03-07T02:00:49;2.13;;;1.92;;
83099;SDS011;72972;51.784;4.660;2024-03-07T02:03:15;2.50;;;2.30;;
83099;SDS011;72972;51.784;4.660;2024-03-07T02:05:42;2.40;;;2.20;;
83099;SDS011;72972;51.784;4.660;2024-03-07T02:08:08;2.40;;;2.20;;
83099;SDS011;72972;51.784;4.660;2024-03-07T02:10:34;2.28;;;2.08;;
83099;SDS011;72972;51.784;4.660;2024-03-07T02:12:59;2.58;;;2.38;;
83099;SDS011;72972;51.784;4.660;2024-03-07T02:15:28;2.30;;;2.10;;
83099;SDS011;72972;51.784;4.660;2024-03-07T02:17:54;2.25;;;2.05;;
83099;SDS011;72972;51.784;4.660;2024-03-07T02:20:20;2.22;;;2.03;;
83099;SDS011;72972;51.784;4.660;2024-03-07T02:22:46;2.08;;;1.88;;
83099;SDS011;72972;51.784;4.660;2024-03-07T02:25:12;2.75;;;2.55;;
83099;SDS011;72972;51.784;4.660;2024-03-07T02:27:41;2.67;;;2.47;;
83099;SDS011;72972;51.784;4.660;2024-03-07T02:30:06;2.22;;;2.03;;
83099;SDS011;72972;51.784;4.660;2024-03-07T02:32:36;2.17;;;1.92;;
83099;SDS011;72972;51.784;4.660;2024-03-07T02:35:03;2.60;;;2.40;;
83099;SDS011;72972;51.784;4.660;2024-03-07T02:37:29;2.15;;;1.95;;
83099;SDS011;72972;51.784;4.660;2024-03-07T02:39:55;2.10;;;1.90;;
83099;SDS011;72972;51.784;4.660;2024-03-07T02:42:21;2.35;;;2.15;;
83099;SDS011;72972;51.784;4.660;2024-03-07T02:44:46;2.35;;;2.15;;
83099;SDS011;72972;51.784;4.660;2024-03-07T02:47:12;2.70;;;2.50;;
83099;SDS011;72972;51.784;4.660;2024-03-07T02:49:37;2.55;;;2.35;;
83099;SDS011;72972;51.784;4.660;2024-03-07T02:52:03;2.25;;;2.05;;
83099;SDS011;72972;51.784;4.660;2024-03-07T02:54:32;2.40;;;2.20;;
83099;SDS011;72972;51.784;4.660;2024-03-07T02:56:58;2.42;;;2.22;;
83099;SDS011;72972;51.784;4.660;2024-03-07T02:59:24;2.40;;;2.20;;
83099;SDS011;72972;51.784;4.660;2024-03-07T03:01:50;2.30;;;2.10;;
83099;SDS011;72972;51.784;4.660;2024-03-07T03:04:16;2.30;;;2.10;;
83099;SDS011;72972;51.784;4.660;2024-03-07T03:06:43;2.60;;;2.40;;
83099;SDS011;72972;51.784;4.660;2024-03-07T03:09:08;2.60;;;2.40;;
83099;SDS011;72972;51.784;4.660;2024-03-07T03:11:38;2.42;;;2.22;;
83099;SDS011;72972;51.784;4.660;2024-03-07T03:14:04;2.60;;;2.40;;
83099;SDS011;72972;51.784;4.660;2024-03-07T03:16:30;2.72;;;2.53;;
83099;SDS011;72972;51.784;4.660;2024-03-07T03:18:56;2.42;;;2.22;;
83099;SDS011;72972;51.784;4.660;2024-03-07T03:21:23;2.70;;;2.50;;
83099;SDS011;72972;51.784;4.660;2024-03-07T03:23:48;2.55;;;2.35;;
83099;SDS011;72972;51.784;4.660;2024-03-07T03:26:14;2.50;;;2.30;;
83099;SDS011;72972;51.784;4.660;2024-03-07T03:28:41;2.40;;;2.20;;
83099;SDS011;72972;51.784;4.660;2024-03-07T03:31:07;2.08;;;1.90;;
83099;SDS011;72972;51.784;4.660;2024-03-07T03:33:34;2.40;;;2.20;;
83099;SDS011;72972;51.784;4.660;2024-03-07T03:36:00;2.65;;;2.45;;
83099;SDS011;72972;51.784;4.660;2024-03-07T03:38:26;2.47;;;2.22;;
83099;SDS011;72972;51.784;4.660;2024-03-07T03:40:51;2.85;;;2.65;;
83099;SDS011;72972;51.784;4.660;2024-03-07T03:43:17;2.53;;;2.33;;
83099;SDS011;72972;51.784;4.660;2024-03-07T03:45:43;2.60;;;2.40;;
83099;SDS011;72972;51.784;4.660;2024-03-07T03:48:10;2.60;;;2.40;;
83099;SDS011;72972;51.784;4.660;2024-03-07T03:50:36;2.40;;;2.20;;
83099;SDS011;72972;51.784;4.660;2024-03-07T03:53:01;2.90;;;2.70;;
83099;SDS011;72972;51.784;4.660;2024-03-07T03:55:29;2.60;;;2.40;;
83099;SDS011;72972;51.784;4.660;2024-03-07T03:57:54;2.60;;;2.40;;
83099;SDS011;72972;51.784;4.660;2024-03-07T04:00:20;2.50;;;2.30;;
83099;SDS011;72972;51.784;4.660;2024-03-07T04:02:48;2.70;;;2.50;;
83099;SDS011;72972;51.784;4.660;2024-03-07T04:05:15;2.72;;;2.53;;
83099;SDS011;72972;51.784;4.660;2024-03-07T04:07:42;2.40;;;2.20;;
83099;SDS011;72972;51.784;4.660;2024-03-07T04:10:08;2.53;;;2.33;;
83099;SDS011;72972;51.784;4.660;2024-03-07T04:12:41;2.53;;;2.33;;
83099;SDS011;72972;51.784;4.660;2024-03-07T04:15:07;2.78;;;2.58;;
83099;SDS011;72972;51.784;4.660;2024-03-07T04:17:34;2.38;;;2.17;;
83099;SDS011;72972;51.784;4.660;2024-03-07T04:20:03;2.58;;;2.38;;
83099;SDS011;72972;51.784;4.660;2024-03-07T04:22:35;2.83;;;2.63;;
83099;SDS011;72972;51.784;4.660;2024-03-07T04:25:04;2.50;;;2.30;;
83099;SDS011;72972;51.784;4.660;2024-03-07T04:27:32;2.60;;;2.40;;
83099;SDS011;72972;51.784;4.660;2024-03-07T04:29:59;2.80;;;2.60;;
83099;SDS011;72972;51.784;4.660;2024-03-07T04:32:28;2.65;;;2.45;;
83099;SDS011;72972;51.784;4.660;2024-03-07T04:34:54;2.65;;;2.45;;
83099;SDS011;72972;51.784;4.660;2024-03-07T04:37:22;2.90;;;2.70;;
83099;SDS011;72972;51.784;4.660;2024-03-07T04:39:51;2.67;;;2.47;;
83099;SDS011;72972;51.784;4.660;2024-03-07T04:42:16;3.10;;;2.90;;
83099;SDS011;72972;51.784;4.660;2024-03-07T04:44:42;2.92;;;2.72;;
83099;SDS011;72972;51.784;4.660;2024-03-07T04:47:08;2.70;;;2.50;;
83099;SDS011;72972;51.784;4.660;2024-03-07T04:49:34;2.75;;;2.55;;
83099;SDS011;72972;51.784;4.660;2024-03-07T04:52:00;2.40;;;2.20;;
83099;SDS011;72972;51.784;4.660;2024-03-07T04:54:28;2.40;;;2.20;;
83099;SDS011;72972;51.784;4.660;2024-03-07T04:56:54;2.70;;;2.50;;
83099;SDS011;72972;51.784;4.660;2024-03-07T04:59:21;3.08;;;2.88;;
83099;SDS011;72972;51.784;4.660;2024-03-07T05:01:48;2.58;;;2.38;;
83099;SDS011;72972;51.784;4.660;2024-03-07T05:06:43;2.53;;;2.33;;
83099;SDS011;72972;51.784;4.660;2024-03-07T05:09:12;2.83;;;2.45;;
83099;SDS011;72972;51.784;4.660;2024-03-07T05:11:48;2.63;;;2.42;;
83099;SDS011;72972;51.784;4.660;2024-03-07T05:14:17;2.60;;;2.40;;
83099;SDS011;72972;51.784;4.660;2024-03-07T05:16:43;2.72;;;2.53;;
83099;SDS011;72972;51.784;4.660;2024-03-07T05:19:09;2.60;;;2.40;;
83099;SDS011;72972;51.784;4.660;2024-03-07T05:21:35;2.70;;;2.50;;
83099;SDS011;72972;51.784;4.660;2024-03-07T05:24:07;2.60;;;2.40;;
83099;SDS011;72972;51.784;4.660;2024-03-07T05:26:34;2.88;;;2.67;;
83099;SDS011;72972;51.784;4.660;2024-03-07T05:29:07;2.50;;;2.30;;
83099;SDS011;72972;51.784;4.660;2024-03-07T05:31:34;2.90;;;2.70;;
83099;SDS011;72972;51.784;4.660;2024-03-07T05:34:01;2.55;;;2.35;;
83099;SDS011;72972;51.784;4.660;2024-03-07T05:36:36;2.50;;;2.30;;
83099;SDS011;72972;51.784;4.660;2024-03-07T05:39:10;2.95;;;2.72;;
83099;SDS011;72972;51.784;4.660;2024-03-07T05:41:37;2.80;;;2.60;;
83099;SDS011;72972;51.784;4.660;2024-03-07T05:44:06;2.85;;;2.65;;
83099;SDS011;72972;51.784;4.660;2024-03-07T05:46:39;3.10;;;2.90;;
83099;SDS011;72972;51.784;4.660;2024-03-07T05:49:10;2.45;;;2.25;;
83099;SDS011;72972;51.784;4.660;2024-03-07T05:51:36;2.95;;;2.75;;
83099;SDS011;72972;51.784;4.660;2024-03-07T05:54:02;2.58;;;2.38;;
83099;SDS011;72972;51.784;4.660;2024-03-07T05:56:35;2.60;;;2.40;;
83099;SDS011;72972;51.784;4.660;2024-03-07T05:59:05;3.17;;;2.90;;
83099;SDS011;72972;51.784;4.660;2024-03-07T06:01:37;3.00;;;2.80;;
83099;SDS011;72972;51.784;4.660;2024-03-07T06:04:05;2.67;;;2.47;;
83099;SDS011;72972;51.784;4.660;2024-03-07T06:06:32;2.72;;;2.40;;
83099;SDS011;72972;51.784;4.660;2024-03-07T06:09:01;3.15;;;2.95;;
83099;SDS011;72972;51.784;4.660;2024-03-07T06:11:34;3.05;;;2.75;;
83099;SDS011;72972;51.784;4.660;2024-03-07T06:14:04;2.92;;;2.72;;
83099;SDS011;72972;51.784;4.660;2024-03-07T06:16:31;3.00;;;2.80;;
83099;SDS011;72972;51.784;4.660;2024-03-07T06:19:04;3.15;;;2.95;;
83099;SDS011;72972;51.784;4.660;2024-03-07T06:21:34;2.80;;;2.60;;
83099;SDS011;72972;51.784;4.660;2024-03-07T06:24:02;2.55;;;2.35;;
83099;SDS011;72972;51.784;4.660;2024-03-07T06:26:32;2.90;;;2.70;;
83099;SDS011;72972;51.784;4.660;2024-03-07T06:29:10;3.10;;;2.90;;
83099;SDS011;72972;51.784;4.660;2024-03-07T06:31:37;2.70;;;2.50;;
83099;SDS011;72972;51.784;4.660;2024-03-07T06:34:03;2.95;;;2.75;;
83099;SDS011;72972;51.784;4.660;2024-03-07T06:36:34;3.08;;;2.88;;
83099;SDS011;72972;51.784;4.660;2024-03-07T06:39:01;2.63;;;2.42;;
83099;SDS011;72972;51.784;4.660;2024-03-07T06:41:28;2.83;;;2.63;;
83099;SDS011;72972;51.784;4.660;2024-03-07T06:43:54;2.78;;;2.58;;
83099;SDS011;72972;51.784;4.660;2024-03-07T06:46:21;2.85;;;2.58;;
83099;SDS011;72972;51.784;4.660;2024-03-07T06:48:47;2.70;;;2.50;;
83099;SDS011;72972;51.784;4.660;2024-03-07T06:51:13;2.60;;;2.40;;
83099;SDS011;72972;51.784;4.660;2024-03-07T06:53:39;2.63;;;2.42;;
83099;SDS011;72972;51.784;4.660;2024-03-07T06:56:05;2.50;;;2.30;;
83099;SDS011;72972;51.784;4.660;2024-03-07T06:58:32;3.13;;;2.83;;
83099;SDS011;72972;51.784;4.660;2024-03-07T07:00:58;2.60;;;2.40;;
83099;SDS011;72972;51.784;4.660;2024-03-07T07:03:26;2.40;;;2.20;;
83099;SDS011;72972;51.784;4.660;2024-03-07T07:05:55;2.58;;;2.38;;
83099;SDS011;72972;51.784;4.660;2024-03-07T07:08:21;2.75;;;2.55;;
83099;SDS011;72972;51.784;4.660;2024-03-07T07:10:47;2.08;;;1.88;;
83099;SDS011;72972;51.784;4.660;2024-03-07T07:13:13;2.40;;;2.20;;
83099;SDS011;72972;51.784;4.660;2024-03-07T07:15:39;2.50;;;2.30;;
83099;SDS011;72972;51.784;4.660;2024-03-07T07:18:05;2.60;;;2.40;;
83099;SDS011;72972;51.784;4.660;2024-03-07T07:20:33;2.50;;;2.30;;
83099;SDS011;72972;51.784;4.660;2024-03-07T07:23:02;2.72;;;2.53;;
83099;SDS011;72972;51.784;4.660;2024-03-07T07:25:29;2.45;;;2.25;;
83099;SDS011;72972;51.784;4.660;2024-03-07T07:27:56;2.42;;;2.22;;
83099;SDS011;72972;51.784;4.660;2024-03-07T07:30:22;2.40;;;2.20;;
83099;SDS011;72972;51.784;4.660;2024-03-07T07:32:50;2.58;;;2.20;;
83099;SDS011;72972;51.784;4.660;2024-03-07T07:35:17;2.40;;;2.20;;
83099;SDS011;72972;51.784;4.660;2024-03-07T07:37:50;2.60;;;2.40;;
83099;SDS011;72972;51.784;4.660;2024-03-07T07:40:19;2.50;;;2.30;;
83099;SDS011;72972;51.784;4.660;2024-03-07T07:42:48;2.97;;;2.15;;
83099;SDS011;72972;51.784;4.660;2024-03-07T07:45:19;2.40;;;2.20;;
83099;SDS011;72972;51.784;4.660;2024-03-07T07:47:50;2.40;;;2.20;;
83099;SDS011;72972;51.784;4.660;2024-03-07T07:50:18;2.40;;;2.20;;
83099;SDS011;72972;51.784;4.660;2024-03-07T07:52:47;2.47;;;2.28;;
83099;SDS011;72972;51.784;4.660;2024-03-07T07:55:16;2.50;;;2.30;;
83099;SDS011;72972;51.784;4.660;2024-03-07T08:00:28;2.53;;;2.33;;
83099;SDS011;72972;51.784;4.660;2024-03-07T08:02:55;2.70;;;2.50;;
83099;SDS011;72972;51.784;4.660;2024-03-07T08:05:26;2.53;;;2.33;;
83099;SDS011;72972;51.784;4.660;2024-03-07T08:07:53;2.50;;;2.30;;
83099;SDS011;72972;51.784;4.660;2024-03-07T08:10:21;2.40;;;2.20;;
83099;SDS011;72972;51.784;4.660;2024-03-07T08:12:48;2.72;;;2.50;;
83099;SDS011;72972;51.784;4.660;2024-03-07T08:15:15;2.42;;;2.22;;
83099;SDS011;72972;51.784;4.660;2024-03-07T08:17:41;2.55;;;2.35;;
83099;SDS011;72972;51.784;4.660;2024-03-07T08:20:09;2.40;;;2.20;;
83099;SDS011;72972;51.784;4.660;2024-03-07T08:22:52;2.33;;;2.13;;
83099;SDS011;72972;51.784;4.660;2024-03-07T08:25:21;2.10;;;1.90;;
83099;SDS011;72972;51.784;4.660;2024-03-07T08:27:51;2.30;;;2.10;;
83099;SDS011;72972;51.784;4.660;2024-03-07T08:30:18;2.97;;;2.08;;
83099;SDS011;72972;51.784;4.660;2024-03-07T08:33:18;1.90;;;1.80;;
83099;SDS011;72972;51.784;4.660;2024-03-07T08:35:37;1.90;;;1.80;;
83099;SDS011;72972;51.784;4.660;2024-03-07T08:38:03;2.05;;;1.80;;
83099;SDS011;72972;51.784;4.660;2024-03-07T08:40:30;2.50;;;2.30;;
83099;SDS011;72972;51.784;4.660;2024-03-07T08:42:57;1.80;;;1.70;;
83099;SDS011;72972;51.784;4.660;2024-03-07T08:45:27;2.00;;;1.90;;
83099;SDS011;72972;51.784;4.660;2024-03-07T08:50:21;1.50;;;1.40;;
83099;SDS011;72972;51.784;4.660;2024-03-07T08:52:49;2.08;;;1.88;;
83099;SDS011;72972;51.784;4.660;2024-03-07T08:55:16;2.05;;;1.85;;
83099;SDS011;72972;51.784;4.660;2024-03-07T08:57:45;2.38;;;2.17;;
83099;SDS011;72972;51.784;4.660;2024-03-07T09:00:25;1.85;;;1.75;;
83099;SDS011;72972;51.784;4.660;2024-03-07T09:02:52;1.90;;;1.80;;
83099;SDS011;72972;51.784;4.660;2024-03-07T09:05:29;1.80;;;1.70;;
83099;SDS011;72972;51.784;4.660;2024-03-07T09:07:58;1.70;;;1.60;;
83099;SDS011;72972;51.784;4.660;2024-03-07T09:10:24;1.52;;;1.42;;
83099;SDS011;72972;51.784;4.660;2024-03-07T09:12:51;2.38;;;1.73;;
83099;SDS011;72972;51.784;4.660;2024-03-07T09:15:17;2.10;;;1.90;;
83099;SDS011;72972;51.784;4.660;2024-03-07T09:17:46;1.90;;;1.55;;
83099;SDS011;72972;51.784;4.660;2024-03-07T09:20:13;1.63;;;1.52;;
83099;SDS011;72972;51.784;4.660;2024-03-07T09:22:40;2.03;;;1.90;;
83099;SDS011;72972;51.784;4.660;2024-03-07T09:25:07;1.70;;;1.60;;
83099;SDS011;72972;51.784;4.660;2024-03-07T09:27:33;1.73;;;1.60;;
83099;SDS011;72972;51.784;4.660;2024-03-07T09:29:59;1.73;;;1.63;;
83099;SDS011;72972;51.784;4.660;2024-03-07T09:32:25;2.08;;;1.83;;
83099;SDS011;72972;51.784;4.660;2024-03-07T09:34:53;1.90;;;1.80;;
83099;SDS011;72972;51.784;4.660;2024-03-07T09:37:20;1.90;;;1.75;;
83099;SDS011;72972;51.784;4.660;2024-03-07T09:39:46;1.45;;;1.35;;
83099;SDS011;72972;51.784;4.660;2024-03-07T09:42:12;1.40;;;1.30;;
83099;SDS011;72972;51.784;4.660;2024-03-07T09:44:43;1.98;;;1.50;;
83099;SDS011;72972;51.784;4.660;2024-03-07T09:47:11;1.50;;;1.40;;
83099;SDS011;72972;51.784;4.660;2024-03-07T09:49:38;1.63;;;1.52;;
83099;SDS011;72972;51.784;4.660;2024-03-07T09:52:06;1.75;;;1.65;;
83099;SDS011;72972;51.784;4.660;2024-03-07T09:54:37;2.03;;;1.92;;
83099;SDS011;72972;51.784;4.660;2024-03-07T09:57:05;1.77;;;1.67;;
83099;SDS011;72972;51.784;4.660;2024-03-07T09:59:36;1.60;;;1.50;;
83099;SDS011;72972;51.784;4.660;2024-03-07T10:02:05;1.73;;;1.63;;
83099;SDS011;72972;51.784;4.660;2024-03-07T10:07:07;1.70;;;1.60;;
83099;SDS011;72972;51.784;4.660;2024-03-07T10:09:37;1.80;;;1.60;;
83099;SDS011;72972;51.784;4.660;2024-03-07T10:12:05;1.65;;;1.55;;
83099;SDS011;72972;51.784;4.660;2024-03-07T10:14:38;1.70;;;1.58;;
83099;SDS011;72972;51.784;4.660;2024-03-07T10:17:04;1.42;;;1.33;;
83099;SDS011;72972;51.784;4.660;2024-03-07T10:19:30;1.58;;;1.48;;
83099;SDS011;72972;51.784;4.660;2024-03-07T10:21:57;1.40;;;1.30;;
83099;SDS011;72972;51.784;4.660;2024-03-07T10:24:24;1.48;;;1.38;;
83099;SDS011;72972;51.784;4.660;2024-03-07T10:26:51;1.55;;;1.45;;
83099;SDS011;72972;51.784;4.660;2024-03-07T10:29:17;1.63;;;1.52;;
83099;SDS011;72972;51.784;4.660;2024-03-07T10:31:44;1.67;;;1.58;;
83099;SDS011;72972;51.784;4.660;2024-03-07T10:34:11;1.42;;;1.33;;
83099;SDS011;72972;51.784;4.660;2024-03-07T10:36:40;1.52;;;1.42;;
83099;SDS011;72972;51.784;4.660;2024-03-07T10:39:08;1.60;;;1.50;;
83099;SDS011;72972;51.784;4.660;2024-03-07T10:44:18;1.50;;;1.38;;
83099;SDS011;72972;51.784;4.660;2024-03-07T10:46:46;1.58;;;1.48;;
83099;SDS011;72972;51.784;4.660;2024-03-07T10:49:18;1.50;;;1.40;;
83099;SDS011;72972;51.784;4.660;2024-03-07T10:51:49;1.60;;;1.50;;
83099;SDS011;72972;51.784;4.660;2024-03-07T11:02:55;1.77;;;1.42;;
83099;SDS011;72972;51.784;4.660;2024-03-07T11:05:25;1.40;;;1.30;;
83099;SDS011;72972;51.784;4.660;2024-03-07T11:08:00;1.60;;;1.50;;
83099;SDS011;72972;51.784;4.660;2024-03-07T11:10:53;1.70;;;1.60;;
83099;SDS011;72972;51.784;4.660;2024-03-07T11:13:20;1.40;;;1.30;;
83099;SDS011;72972;51.784;4.660;2024-03-07T11:15:46;1.50;;;1.40;;
83099;SDS011;72972;51.784;4.660;2024-03-07T11:18:16;1.55;;;1.45;;
83099;SDS011;72972;51.784;4.660;2024-03-07T11:20:42;1.50;;;1.40;;
83099;SDS011;72972;51.784;4.660;2024-03-07T11:26:02;1.60;;;1.50;;
83099;SDS011;72972;51.784;4.660;2024-03-07T11:28:33;2.67;;;1.80;;
83099;SDS011;72972;51.784;4.660;2024-03-07T11:36:44;1.70;;;1.60;;
83099;SDS011;72972;51.784;4.660;2024-03-07T11:42:21;1.60;;;1.50;;
83099;SDS011;72972;51.784;4.660;2024-03-07T11:44:53;1.58;;;1.48;;
83099;SDS011;72972;51.784;4.660;2024-03-07T11:47:24;2.00;;;1.80;;
83099;SDS011;72972;51.784;4.660;2024-03-07T11:49:54;1.45;;;1.35;;
83099;SDS011;72972;51.784;4.660;2024-03-07T11:52:23;1.65;;;1.55;;
83099;SDS011;72972;51.784;4.660;2024-03-07T11:54:49;1.80;;;1.70;;
83099;SDS011;72972;51.784;4.660;2024-03-07T11:57:17;1.60;;;1.50;;
83099;SDS011;72972;51.784;4.660;2024-03-07T11:59:58;1.60;;;1.50;;
83099;SDS011;72972;51.784;4.660;2024-03-07T12:02:46;1.70;;;1.60;;
83099;SDS011;72972;51.784;4.660;2024-03-07T12:05:14;1.60;;;1.50;;
83099;SDS011;72972;51.784;4.660;2024-03-07T12:07:42;1.63;;;1.52;;
83099;SDS011;72972;51.784;4.660;2024-03-07T12:10:11;1.50;;;1.40;;
83099;SDS011;72972;51.784;4.660;2024-03-07T12:12:37;1.90;;;1.70;;
83099;SDS011;72972;51.784;4.660;2024-03-07T12:15:04;1.60;;;1.50;;
83099;SDS011;72972;51.784;4.660;2024-03-07T12:17:45;2.33;;;1.52;;
83099;SDS011;72972;51.784;4.660;2024-03-07T12:20:15;1.67;;;1.58;;
83099;SDS011;72972;51.784;4.660;2024-03-07T12:23:11;2.08;;;1.88;;
83099;SDS011;72972;51.784;4.660;2024-03-07T12:28:14;1.80;;;1.40;;
83099;SDS011;72972;51.784;4.660;2024-03-07T12:33:12;1.90;;;1.80;;
83099;SDS011;72972;51.784;4.660;2024-03-07T12:35:49;1.70;;;1.60;;
83099;SDS011;72972;51.784;4.660;2024-03-07T12:38:20;1.30;;;1.20;;
83099;SDS011;72972;51.784;4.660;2024-03-07T12:41:01;1.50;;;1.40;;
83099;SDS011;72972;51.784;4.660;2024-03-07T12:43:39;2.00;;;1.80;;
83099;SDS011;72972;51.784;4.660;2024-03-07T12:46:12;1.65;;;1.55;;
83099;SDS011;72972;51.784;4.660;2024-03-07T12:48:39;1.67;;;1.58;;
83099;SDS011;72972;51.784;4.660;2024-03-07T12:51:05;1.60;;;1.50;;
83099;SDS011;72972;51.784;4.660;2024-03-07T12:53:32;1.50;;;1.40;;
83099;SDS011;72972;51.784;4.660;2024-03-07T12:56:00;1.70;;;1.60;;
83099;SDS011;72972;51.784;4.660;2024-03-07T12:58:28;1.50;;;1.40;;
83099;SDS011;72972;51.784;4.660;2024-03-07T13:00:55;1.70;;;1.60;;
83099;SDS011;72972;51.784;4.660;2024-03-07T13:03:22;1.48;;;1.38;;
83099;SDS011;72972;51.784;4.660;2024-03-07T13:05:53;1.50;;;1.40;;
83099;SDS011;72972;51.784;4.660;2024-03-07T13:08:20;1.50;;;1.40;;
83099;SDS011;72972;51.784;4.660;2024-03-07T13:10:50;1.65;;;1.55;;
83099;SDS011;72972;51.784;4.660;2024-03-07T13:13:16;1.63;;;1.52;;
83099;SDS011;72972;51.784;4.660;2024-03-07T13:15:42;1.67;;;1.58;;
83099;SDS011;72972;51.784;4.660;2024-03-07T13:18:12;1.55;;;1.45;;
83099;SDS011;72972;51.784;4.660;2024-03-07T13:20:38;1.67;;;1.58;;
83099;SDS011;72972;51.784;4.660;2024-03-07T13:23:08;1.40;;;1.30;;
83099;SDS011;72972;51.784;4.660;2024-03-07T13:25:35;1.67;;;1.58;;
83099;SDS011;72972;51.784;4.660;2024-03-07T13:30:49;1.48;;;1.38;;
83099;SDS011;72972;51.784;4.660;2024-03-07T13:33:16;1.75;;;1.65;;
83099;SDS011;72972;51.784;4.660;2024-03-07T13:35:43;2.05;;;1.95;;
83099;SDS011;72972;51.784;4.660;2024-03-07T13:38:09;1.70;;;1.60;;
83099;SDS011;72972;51.784;4.660;2024-03-07T13:40:35;1.63;;;1.52;;
83099;SDS011;72972;51.784;4.660;2024-03-07T13:43:04;1.67;;;1.58;;
83099;SDS011;72972;51.784;4.660;2024-03-07T13:45:31;1.70;;;1.60;;
83099;SDS011;72972;51.784;4.660;2024-03-07T13:48:05;1.58;;;1.48;;
83099;SDS011;72972;51.784;4.660;2024-03-07T13:50:33;1.67;;;1.58;;
83099;SDS011;72972;51.784;4.660;2024-03-07T13:53:20;1.75;;;1.65;;
83099;SDS011;72972;51.784;4.660;2024-03-07T13:58:48;2.85;;;2.03;;
83099;SDS011;72972;51.784;4.660;2024-03-07T14:04:38;1.77;;;1.67;;
83099;SDS011;72972;51.784;4.660;2024-03-07T14:20:56;1.80;;;1.70;;
83099;SDS011;72972;51.784;4.660;2024-03-07T14:29:23;1.80;;;1.70;;
83099;SDS011;72972;51.784;4.660;2024-03-07T14:32:03;1.60;;;1.50;;
83099;SDS011;72972;51.784;4.660;2024-03-07T14:34:37;1.58;;;1.48;;
83099;SDS011;72972;51.784;4.660;2024-03-07T14:37:28;1.50;;;1.40;;
83099;SDS011;72972;51.784;4.660;2024-03-07T14:40:12;1.70;;;1.60;;
83099;SDS011;72972;51.784;4.660;2024-03-07T14:42:44;1.70;;;1.60;;
83099;SDS011;72972;51.784;4.660;2024-03-07T14:45:12;1.50;;;1.40;;
83099;SDS011;72972;51.784;4.660;2024-03-07T14:47:45;1.70;;;1.60;;
83099;SDS011;72972;51.784;4.660;2024-03-07T14:50:14;1.50;;;1.40;;
83099;SDS011;72972;51.784;4.660;2024-03-07T14:52:44;1.48;;;1.38;;
83099;SDS011;72972;51.784;4.660;2024-03-07T14:55:10;1.75;;;1.65;;
83099;SDS011;72972;51.784;4.660;2024-03-07T14:57:39;1.70;;;1.60;;
83099;SDS011;72972;51.784;4.660;2024-03-07T15:00:20;1.95;;;1.75;;
83099;SDS011;72972;51.784;4.660;2024-03-07T15:02:52;1.60;;;1.50;;
83099;SDS011;72972;51.784;4.660;2024-03-07T15:05:24;1.50;;;1.40;;
83099;SDS011;72972;51.784;4.660;2024-03-07T15:07:52;1.40;;;1.30;;
83099;SDS011;72972;51.784;4.660;2024-03-07T15:10:19;1.90;;;1.50;;
83099;SDS011;72972;51.784;4.660;2024-03-07T15:12:56;1.55;;;1.45;;
83099;SDS011;72972;51.784;4.660;2024-03-07T15:15:23;1.65;;;1.55;;
83099;SDS011;72972;51.784;4.660;2024-03-07T15:17:56;1.50;;;1.40;;
83099;SDS011;72972;51.784;4.660;2024-03-07T15:20:23;1.60;;;1.50;;
83099;SDS011;72972;51.784;4.660;2024-03-07T15:22:58;1.65;;;1.55;;
83099;SDS011;72972;51.784;4.660;2024-03-07T15:25:25;1.50;;;1.40;;
83099;SDS011;72972;51.784;4.660;2024-03-07T15:27:53;1.30;;;1.20;;
83099;SDS011;72972;51.784;4.660;2024-03-07T15:30:25;1.80;;;1.70;;
83099;SDS011;72972;51.784;4.660;2024-03-07T15:33:00;1.30;;;1.20;;
83099;SDS011;72972;51.784;4.660;2024-03-07T15:35:27;1.70;;;1.60;;
83099;SDS011;72972;51.784;4.660;2024-03-07T15:37:56;1.50;;;1.40;;
83099;SDS011;72972;51.784;4.660;2024-03-07T15:40:22;1.73;;;1.63;;
83099;SDS011;72972;51.784;4.660;2024-03-07T15:42:50;1.92;;;1.50;;
83099;SDS011;72972;51.784;4.660;2024-03-07T15:45:20;1.63;;;1.52;;
83099;SDS011;72972;51.784;4.660;2024-03-07T15:47:50;1.70;;;1.60;;
83099;SDS011;72972;51.784;4.660;2024-03-07T15:50:35;1.60;;;1.50;;
83099;SDS011;72972;51.784;4.660;2024-03-07T15:53:04;1.60;;;1.50;;
83099;SDS011;72972;51.784;4.660;2024-03-07T15:55:33;1.60;;;1.50;;
83099;SDS011;72972;51.784;4.660;2024-03-07T15:58:01;1.42;;;1.33;;
83099;SDS011;72972;51.784;4.660;2024-03-07T16:00:38;1.70;;;1.60;;
83099;SDS011;72972;51.784;4.660;2024-03-07T16:03:05;1.70;;;1.60;;